ADDS METAR Data INFO
IDs: Format: Raw Decoded Include TAF

Data at: 0328 UTC 19 Jul 2018

KIJX 190315Z AUTO 07007KT 10SM CLR 20/18 A3002 RMK AO2 T01950180
KIJX 190255Z AUTO 09006KT 10SM CLR 20/18 A3002 RMK AO2 T01980181
KIJX 190235Z AUTO 08007KT 10SM CLR 20/19 A3002 RMK AO2 T02000185
KIJX 190215Z AUTO 08006KT 10SM CLR 21/19 A3001 RMK AO2 T02050188
KIJX 190155Z AUTO 07004KT 10SM CLR 21/19 A3002 RMK AO2 T02060190
KIJX 190135Z AUTO 07004KT 10SM CLR 21/19 A3001 RMK AO2 T02130191
KIJX 190115Z AUTO 09005KT 10SM CLR 22/19 A3001 RMK AO2 T02220190
KIJX 190055Z AUTO 10003KT 10SM CLR 23/19 A3002 RMK AO2 T02310190
KIJX 190035Z AUTO 08005KT 10SM CLR 24/19 A3001 RMK AO2 T02410194
KIJX 190015Z AUTO 08005KT 10SM CLR 25/20 A3002 RMK AO2 T02450196
KIJX 182355Z AUTO 08005KT 10SM CLR 25/20 A3002 RMK AO2 T02470196 10269 20247
KIJX 182335Z AUTO 08005KT 10SM CLR 25/20 A3001 RMK AO2 T02530195
KIJX 182315Z AUTO 08005KT 10SM CLR 26/20 A3001 RMK AO2 T02560199
KIJX 182255Z AUTO 09005KT 10SM CLR 26/20 A3001 RMK AO2 T02570197
KIJX 182235Z AUTO 09006KT 10SM CLR 26/19 A3001 RMK AO2 T02600188
KIJX 182215Z AUTO 07007KT 10SM CLR 26/19 A3001 RMK AO2 T02610187
KIJX 182155Z AUTO 07008KT 10SM CLR 27/19 A3002 RMK AO2 T02670190
KIJX 182135Z AUTO 09007KT 10SM SCT036 27/20 A3002 RMK AO2 T02670195
KIJX 182115Z AUTO 08007KT 10SM SCT036 26/19 A3003 RMK AO2 T02630193
KIJX 182055Z AUTO 09008KT 10SM CLR 27/19 A3004 RMK AO2 T02670191
KIJX 182035Z AUTO 10008KT 10SM CLR 27/19 A3005 RMK AO2 T02670190
KIJX 182015Z AUTO 09008KT 10SM CLR 27/19 A3005 RMK AO2 T02660190
KIJX 181955Z AUTO 10006KT 10SM CLR 27/20 A3006 RMK AO2 T02680195
KIJX 181935Z AUTO 11008KT 10SM CLR 26/19 A3007 RMK AO2 T02640193
KIJX 181915Z AUTO 09008KT 10SM CLR 26/19 A3007 RMK AO2 T02620188
KIJX 181855Z AUTO 09008KT 10SM CLR 26/19 A3007 RMK AO2 T02610189
KIJX 181835Z AUTO 11007KT 10SM CLR 26/19 A3008 RMK AO2 T02620192
KIJX 181815Z AUTO 12006KT 10SM CLR 26/19 A3009 RMK AO2 T02600191
KIJX 181755Z AUTO 08006KT 10SM CLR 26/18 A3010 RMK AO2 T02560184 10257 20186
KIJX 181735Z AUTO 11005KT 10SM CLR 26/19 A3010 RMK AO2 T02560188
KIJX 181715Z AUTO 11006KT 10SM CLR 25/18 A3010 RMK AO2 T02530183
KIJX 181655Z AUTO 10006KT 10SM CLR 25/18 A3010 RMK AO2 T02490179
KIJX 181635Z AUTO 08007KT 10SM CLR 25/18 A3010 RMK AO2 T02460175
KIJX 181615Z AUTO 12009KT 10SM CLR 24/17 A3011 RMK AO2 T02430169
KIJX 181555Z AUTO 11007KT 10SM CLR 24/17 A3011 RMK AO2 T02400168
KIJX 181535Z AUTO 10010KT 10SM CLR 24/16 A3011 RMK AO2 T02370162
KIJX 181515Z AUTO 11010KT 10SM CLR 23/16 A3011 RMK AO2 T02310158
KIJX 181455Z AUTO 11009KT 10SM SCT100 23/16 A3010 RMK AO2 T02300159
KIJX 181435Z AUTO 10011KT 10SM OVC100 23/16 A3011 RMK AO2 T02270156
KIJX 181415Z AUTO 12009KT 10SM OVC100 22/15 A3011 RMK AO2 T02170150
KIJX 181355Z AUTO 11007KT 10SM OVC100 21/15 A3011 RMK AO2 T02110149
KIJX 181335Z AUTO 11007KT 10SM OVC100 21/15 A3011 RMK AO2 LTG DSNT SW T02050149
KIJX 181315Z AUTO 10008KT 10SM OVC100 20/15 A3010 RMK AO2 T02000150
KIJX 181255Z AUTO 10008KT 10SM OVC100 20/15 A3010 RMK AO2 T01950152
KIJX 181235Z AUTO 09006KT 10SM OVC100 19/16 A3009 RMK AO2 T01890155
KIJX 181215Z AUTO 10007KT 10SM OVC100 19/16 A3009 RMK AO2 T01870158
KIJX 181155Z AUTO 09006KT 10SM OVC100 19/16 A3010 RMK AO2 T01860161 10200 20182
KIJX 181135Z AUTO 09006KT 10SM OVC100 18/16 A3010 RMK AO2 T01840162
KIJX 181115Z AUTO 10005KT 10SM OVC100 18/16 A3010 RMK AO2 T01830161
KIJX 181055Z AUTO 09004KT 10SM OVC100 18/17 A3010 RMK AO2 T01820165
KIJX 181035Z AUTO 10005KT 10SM BKN100 18/17 A3009 RMK AO2 T01830165
KIJX 181015Z AUTO 08006KT 10SM OVC100 19/17 A3008 RMK AO2 T01870170
KIJX 180955Z AUTO 08005KT 10SM OVC100 19/18 A3009 RMK AO2 T01900177
KIJX 180935Z AUTO 10004KT 10SM OVC100 19/18 A3009 RMK AO2 T01920178
KIJX 180915Z AUTO 10006KT 10SM OVC100 20/18 A3008 RMK AO2 T01950180
KIJX 180855Z AUTO 09006KT 10SM OVC100 19/18 A3008 RMK AO2 T01910180
KIJX 180835Z AUTO 08005KT 10SM BKN100 19/18 A3008 RMK AO2 T01900180
KIJX 180815Z AUTO 07004KT 10SM CLR 19/18 A3008 RMK AO2 T01880181
KIJX 180755Z AUTO 07003KT 10SM CLR 19/18 A3008 RMK AO2 T01860180
KIJX 180735Z AUTO 08004KT 10SM SCT085 19/19 A3008 RMK AO2 T01910185
KIJX 180715Z AUTO 00000KT 10SM SCT085 19/19 A3008 RMK AO2 T01910186
KIJX 180655Z AUTO 00000KT 10SM BKN085 20/19 A3008 RMK AO2 T01950187
KIJX 180635Z AUTO 00000KT 10SM BKN085 19/19 A3008 RMK AO2 T01920186
KIJX 180615Z AUTO 04003KT 10SM BKN085 20/19 A3007 RMK AO2 T01950188
KIJX 180555Z AUTO 00000KT 10SM CLR 20/19 A3007 RMK AO2 T01950187 10265 20193 402830167
KIJX 180535Z AUTO 00000KT 10SM CLR 20/19 A3008 RMK AO2 T01950187
KIJX 180515Z AUTO 00000KT 10SM CLR 20/19 A3008 RMK AO2 T02000192
KIJX 180455Z AUTO 00000KT 10SM CLR 20/19 A3008 RMK AO2 T01980190
KIJX 180435Z AUTO 00000KT 10SM CLR 20/19 A3008 RMK AO2 T02020193
KIJX 180415Z AUTO 00000KT 10SM CLR 20/19 A3008 RMK AO2 T02020194
KIJX 180355Z AUTO 00000KT 10SM CLR 20/19 A3007 RMK AO2 T02020193
KIJX 180335Z AUTO 00000KT 10SM CLR 21/20 A3007 RMK AO2 T02080200
KIJX 180315Z AUTO 00000KT 10SM CLR 21/20 A3007 RMK AO2 T02120200
KIJX 180250Z AUTO 00000KT 10SM CLR 22/20 A3006 RMK AO2 T02150203
KIJX 180235Z AUTO 00000KT 10SM CLR 22/20 A3006 RMK AO2 T02210204
KIJX 180215Z AUTO 00000KT 10SM CLR 22/21 A3006 RMK AO2 T02230208
KIJX 180155Z AUTO 00000KT 10SM CLR 22/21 A3005 RMK AO2 T02180205
KIJX 180135Z AUTO 00000KT 10SM CLR 23/21 A3005 RMK AO2 T02310209
KIJX 180115Z AUTO 00000KT 10SM CLR 24/22 A3005 RMK AO2 T02360215
KIJX 180055Z AUTO 00000KT 10SM CLR 26/20 A3005 RMK AO2 T02580197
KIJX 180035Z AUTO 00000KT 10SM CLR 26/21 A3005 RMK AO2 T02600205
KIJX 180015Z AUTO 00000KT 10SM CLR 26/21 A3004 RMK AO2 T02610207
KIJX 172355Z AUTO 00000KT 10SM CLR 26/21 A3005 RMK AO2 T02640208 10283 20264
KIJX 172335Z AUTO 00000KT 10SM CLR 27/20 A3005 RMK AO2 T02660202
KIJX 172315Z AUTO 00000KT 10SM CLR 27/20 A3005 RMK AO2 T02680196
KIJX 172255Z AUTO 02003KT 10SM SCT090 28/20 A3005 RMK AO2 T02750195
KIJX 172235Z AUTO 00000KT 10SM SCT090 27/19 A3006 RMK AO2 T02730191
KIJX 172215Z AUTO 02004KT 10SM CLR 28/20 A3006 RMK AO2 T02790199
KIJX 172155Z AUTO 03003KT 10SM CLR 28/20 A3006 RMK AO2 T02800197
KIJX 172135Z AUTO 00000KT 10SM CLR 28/19 A3006 RMK AO2 T02790185
KIJX 172115Z AUTO 00000KT 10SM CLR 28/19 A3007 RMK AO2 T02820194
KIJX 172055Z AUTO 00000KT 10SM CLR 28/20 A3007 RMK AO2 T02830198
KIJX 172035Z AUTO 05003KT 10SM CLR 28/20 A3007 RMK AO2 T02790198
KIJX 172015Z AUTO 06004KT 10SM CLR 28/20 A3007 RMK AO2 T02750196
KIJX 171955Z AUTO 04005KT 10SM CLR 28/20 A3007 RMK AO2 T02760202
KIJX 171935Z AUTO 00000KT 10SM CLR 27/20 A3007 RMK AO2 T02720195
KIJX 171915Z AUTO 08003KT 10SM CLR 28/19 A3007 RMK AO2 T02750193
KIJX 171855Z AUTO 08005KT 10SM CLR 27/20 A3008 RMK AO2 T02730196
KIJX 171835Z AUTO 08005KT 10SM CLR 27/20 A3008 RMK AO2 T02740200
KIJX 171815Z AUTO 08007KT 10SM CLR 27/19 A3009 RMK AO2 T02700189
KIJX 171755Z AUTO 05008KT 10SM CLR 27/19 A3010 RMK AO2 T02710191 10271 20187
KIJX 171735Z AUTO 07004KT 10SM CLR 27/19 A3010 RMK AO2 T02660187
KIJX 171715Z AUTO 03007KT 10SM CLR 27/19 A3009 RMK AO2 T02650187
KIJX 171655Z AUTO 06008KT 10SM CLR 26/19 A3010 RMK AO2 T02620190
KIJX 171635Z AUTO 05006KT 10SM CLR 26/19 A3010 RMK AO2 T02620190
KIJX 171615Z AUTO 04009KT 10SM CLR 26/19 A3010 RMK AO2 T02610189
KIJX 171555Z AUTO 06008KT 10SM CLR 26/18 A3010 RMK AO2 T02600183
KIJX 171535Z AUTO 07008KT 10SM CLR 26/19 A3009 RMK AO2 T02580186